createdAt,value
2023-09-10T00:00:29.147Z,99.90
2023-09-10T00:01:34.606Z,99.90
2023-09-10T00:02:37.446Z,99.90
2023-09-10T00:03:40.579Z,99.90
2023-09-10T00:04:42.534Z,99.90
2023-09-10T00:05:44.625Z,99.90
2023-09-10T00:06:47.515Z,99.90
2023-09-10T00:07:49.543Z,99.90
2023-09-10T00:08:52.543Z,99.90
2023-09-10T00:09:54.618Z,99.90
2023-09-10T00:10:57.727Z,99.90
2023-09-10T00:11:59.858Z,99.90
2023-09-10T00:13:04.875Z,99.90
2023-09-10T00:14:06.930Z,99.90
2023-09-10T00:15:10.286Z,99.90
2023-09-10T00:16:12.185Z,99.90
2023-09-10T00:17:15.125Z,99.90
2023-09-10T00:18:17.092Z,99.90
2023-09-10T00:19:20.246Z,99.90
2023-09-10T00:20:22.286Z,99.90
2023-09-10T00:21:25.267Z,99.90
2023-09-10T00:22:27.233Z,99.90
2023-09-10T00:23:30.187Z,99.90
2023-09-10T00:24:32.215Z,99.90
2023-09-10T00:25:35.961Z,99.90
2023-09-10T00:26:37.919Z,99.90
2023-09-10T00:27:40.809Z,99.90
2023-09-10T00:28:45.448Z,99.90
2023-09-10T00:29:48.413Z,99.90
2023-09-10T00:30:52.499Z,99.90
2023-09-10T00:31:55.463Z,99.90
2023-09-10T00:32:57.532Z,99.90
2023-09-10T00:34:00.750Z,99.90
2023-09-10T00:35:02.670Z,99.90
2023-09-10T00:36:05.917Z,99.90
2023-09-10T00:37:08.627Z,99.90
2023-09-10T00:38:11.600Z,99.90
2023-09-10T00:39:13.530Z,99.90
2023-09-10T00:40:16.495Z,99.90
2023-09-10T00:41:18.409Z,99.90
2023-09-10T00:42:21.371Z,99.90
2023-09-10T00:43:23.774Z,99.90
2023-09-10T00:44:27.205Z,99.90
2023-09-10T00:45:30.485Z,99.90
2023-09-10T00:46:32.897Z,99.90
2023-09-10T00:47:37.080Z,99.90
2023-09-10T00:48:39.367Z,99.90
2023-09-10T00:49:42.972Z,99.90
2023-09-10T00:50:45.334Z,99.90
2023-09-10T00:51:49.013Z,99.90
2023-09-10T00:52:53.726Z,99.90
2023-09-10T00:53:56.757Z,99.90
2023-09-10T00:54:58.787Z,99.90
2023-09-10T00:56:01.880Z,99.90
2023-09-10T00:57:04.430Z,99.90
2023-09-10T00:58:07.344Z,99.90
2023-09-10T00:59:09.836Z,99.90
2023-09-10T01:00:14.449Z,99.90
2023-09-10T01:01:18.925Z,99.90
2023-09-10T01:02:21.326Z,99.90
2023-09-10T01:03:25.920Z,99.90
2023-09-10T01:04:27.891Z,99.90
2023-09-10T01:05:33.558Z,99.90
2023-09-10T01:06:35.824Z,99.90
2023-09-10T01:07:38.341Z,99.90
2023-09-10T01:08:41.697Z,99.90
2023-09-10T01:09:43.911Z,99.90
2023-09-10T01:10:51.159Z,99.90
2023-09-10T01:11:57.173Z,99.90
2023-09-10T01:13:03.225Z,99.90
2023-09-10T01:14:08.340Z,99.90
2023-09-10T01:15:14.891Z,99.90
2023-09-10T01:16:19.885Z,99.90
2023-09-10T01:17:24.986Z,99.90
2023-09-10T01:18:30.286Z,99.90
2023-09-10T01:19:43.166Z,99.90
2023-09-10T01:20:54.041Z,99.90
2023-09-10T01:21:58.204Z,99.90
2023-09-10T01:23:05.233Z,99.90
2023-09-10T01:24:12.857Z,99.90
2023-09-10T01:25:17.677Z,99.90
2023-09-10T01:26:20.082Z,99.90
2023-09-10T01:27:23.042Z,99.90
2023-09-10T01:28:25.010Z,99.90
2023-09-10T01:29:27.115Z,99.90
2023-09-10T01:30:30.118Z,99.90
2023-09-10T01:31:35.369Z,99.90
2023-09-10T01:32:40.571Z,99.90
2023-09-10T01:33:52.697Z,99.90
2023-09-10T01:35:00.748Z,99.90
2023-09-10T01:36:04.442Z,99.90
2023-09-10T01:37:10.302Z,99.90
2023-09-10T01:38:16.638Z,99.90
2023-09-10T01:39:25.541Z,99.90
2023-09-10T01:40:32.160Z,99.90
2023-09-10T01:41:36.208Z,99.90
2023-09-10T01:42:38.662Z,99.90
2023-09-10T01:43:42.429Z,99.90
2023-09-10T01:44:44.634Z,99.90
2023-09-10T01:45:49.154Z,99.90
2023-09-10T01:46:51.957Z,99.90
2023-09-10T01:47:55.123Z,99.90
2023-09-10T01:48:57.379Z,99.90
2023-09-10T01:50:00.381Z,99.90
2023-09-10T01:51:02.383Z,99.90
2023-09-10T01:52:05.626Z,99.90
2023-09-10T01:53:07.735Z,99.90
2023-09-10T01:54:10.632Z,99.90
2023-09-10T01:55:12.567Z,99.90
2023-09-10T01:56:17.024Z,99.90
2023-09-10T01:57:19.336Z,99.90
2023-09-10T01:58:22.240Z,99.90
2023-09-10T01:59:24.154Z,99.90
2023-09-10T02:00:27.104Z,99.90
2023-09-10T02:01:29.178Z,99.90
2023-09-10T02:02:32.374Z,99.90
2023-09-10T02:03:34.714Z,99.90
2023-09-10T02:04:36.824Z,99.90
2023-09-10T02:05:39.778Z,99.90
2023-09-10T02:06:41.833Z,99.90
2023-09-10T02:07:44.814Z,99.90
2023-09-10T02:08:47.067Z,99.90
2023-09-10T02:09:49.959Z,99.90
2023-09-10T02:10:51.928Z,99.90
2023-09-10T02:11:56.170Z,99.90
2023-09-10T02:12:58.115Z,99.90
2023-09-10T02:14:01.072Z,99.90
2023-09-10T02:15:04.896Z,99.90
2023-09-10T02:16:08.234Z,99.90
2023-09-10T02:17:10.295Z,99.90
2023-09-10T02:18:13.262Z,99.90
2023-09-10T02:19:15.195Z,99.90
2023-09-10T02:20:18.210Z,99.90
2023-09-10T02:21:20.540Z,99.90
2023-09-10T02:22:23.423Z,99.90
2023-09-10T02:23:25.476Z,99.90
2023-09-10T02:24:28.466Z,99.90
2023-09-10T02:25:31.742Z,99.90
2023-09-10T02:26:35.780Z,99.90
2023-09-10T02:27:39.121Z,99.90
2023-09-10T02:28:42.245Z,99.90
2023-09-10T02:29:44.453Z,99.90
2023-09-10T02:30:47.316Z,99.90
2023-09-10T02:31:49.427Z,99.90
2023-09-10T02:32:52.639Z,99.90
2023-09-10T02:34:01.257Z,99.90
2023-09-10T02:35:04.884Z,99.90
2023-09-10T02:36:08.153Z,99.90
2023-09-10T02:37:11.087Z,99.90
2023-09-10T02:38:13.125Z,99.90
2023-09-10T02:39:16.342Z,99.90
2023-09-10T02:40:18.464Z,99.90
2023-09-10T02:41:21.599Z,99.90
2023-09-10T02:42:23.560Z,99.90
2023-09-10T02:43:27.837Z,99.90
2023-09-10T02:44:29.867Z,99.90
2023-09-10T02:45:33.021Z,99.90
2023-09-10T02:46:35.709Z,99.90
2023-09-10T02:47:38.668Z,99.90
2023-09-10T02:48:40.936Z,99.90
2023-09-10T02:49:44.052Z,99.90
2023-09-10T02:50:46.159Z,99.90
2023-09-10T02:51:49.683Z,99.90
2023-09-10T02:52:51.762Z,99.90
2023-09-10T02:53:54.671Z,99.90
2023-09-10T02:54:56.658Z,99.90
2023-09-10T02:56:02.719Z,99.90
2023-09-10T02:57:04.938Z,99.90
2023-09-10T02:58:07.403Z,99.90
2023-09-10T02:59:19.093Z,99.90
2023-09-10T03:00:26.571Z,99.90
2023-09-10T03:01:29.716Z,99.90
2023-09-10T03:02:31.827Z,99.90
2023-09-10T03:03:35.713Z,99.90
2023-09-10T03:04:37.996Z,99.90
2023-09-10T03:05:40.926Z,99.90
2023-09-10T03:06:43.184Z,99.90
2023-09-10T03:07:46.309Z,99.90
2023-09-10T03:08:48.841Z,99.90
2023-09-10T03:09:52.420Z,99.90
2023-09-10T03:10:54.401Z,99.90
2023-09-10T03:11:59.748Z,99.90
2023-09-10T03:13:01.901Z,99.90
2023-09-10T03:14:05.014Z,99.90
2023-09-10T03:15:09.192Z,99.90
2023-09-10T03:16:12.129Z,99.90
2023-09-10T03:17:14.283Z,99.90
2023-09-10T03:18:17.736Z,99.90
2023-09-10T03:19:19.823Z,99.90
2023-09-10T03:20:22.745Z,99.90
2023-09-10T03:21:25.147Z,99.90
2023-09-10T03:22:28.528Z,99.90
2023-09-10T03:23:30.498Z,99.90
2023-09-10T03:24:35.312Z,99.90
2023-09-10T03:25:37.931Z,99.90
2023-09-10T03:26:41.107Z,99.90
2023-09-10T03:27:43.136Z,99.90
2023-09-10T03:28:46.102Z,99.90
2023-09-10T03:29:48.260Z,99.90
2023-09-10T03:30:57.511Z,99.90
2023-09-10T03:31:59.723Z,99.90
2023-09-10T03:33:02.754Z,99.90
2023-09-10T03:34:04.944Z,99.90
2023-09-10T03:35:09.089Z,99.90
2023-09-10T03:36:12.153Z,99.90
2023-09-10T03:37:14.485Z,99.90
2023-09-10T03:38:17.441Z,99.90
2023-09-10T03:39:19.611Z,99.90
2023-09-10T03:40:22.688Z,99.90
2023-09-10T03:41:24.647Z,99.90
2023-09-10T03:42:27.722Z,99.90
2023-09-10T03:43:29.705Z,99.90
2023-09-10T03:44:33.465Z,99.90
2023-09-10T03:45:35.747Z,99.90
2023-09-10T03:46:40.227Z,99.90
2023-09-10T03:47:42.326Z,99.90
2023-09-10T03:48:45.647Z,99.90
2023-09-10T03:49:47.693Z,99.90
2023-09-10T03:50:50.893Z,99.90
2023-09-10T03:51:52.948Z,99.90
2023-09-10T03:52:55.926Z,99.90
2023-09-10T03:53:57.903Z,99.90
2023-09-10T03:55:00.839Z,99.90
2023-09-10T03:56:02.855Z,99.90
2023-09-10T03:57:07.674Z,99.90
2023-09-10T03:58:09.704Z,99.90
2023-09-10T03:59:12.697Z,99.90
2023-09-10T04:00:14.723Z,99.90
2023-09-10T04:01:18.189Z,99.90
2023-09-10T04:02:21.813Z,99.90
2023-09-10T04:03:27.039Z,99.90
2023-09-10T04:04:29.995Z,99.90
2023-09-10T04:05:32.968Z,99.90
2023-09-10T04:06:34.977Z,99.90
2023-09-10T04:07:38.107Z,99.90
2023-09-10T04:08:40.390Z,99.90
2023-09-10T04:09:43.785Z,99.90
2023-09-10T04:10:45.768Z,99.90
2023-09-10T04:11:49.032Z,99.90
2023-09-10T04:12:52.105Z,99.90
2023-09-10T04:13:55.136Z,99.90
2023-09-10T04:14:57.123Z,99.90
2023-09-10T04:15:59.050Z,99.90
2023-09-10T04:17:02.069Z,99.90
2023-09-10T04:18:06.527Z,99.90
2023-09-10T04:19:09.822Z,99.90
2023-09-10T04:20:12.240Z,99.90
2023-09-10T04:21:15.241Z,99.90
2023-09-10T04:22:17.241Z,99.90
2023-09-10T04:23:20.204Z,99.90
2023-09-10T04:24:22.191Z,99.90
2023-09-10T04:25:25.162Z,99.90
2023-09-10T04:26:27.447Z,99.90
2023-09-10T04:27:29.522Z,99.90
2023-09-10T04:28:32.458Z,99.90
2023-09-10T04:29:34.399Z,99.90
2023-09-10T04:30:37.839Z,99.90
2023-09-10T04:31:41.158Z,99.90
2023-09-10T04:32:44.310Z,99.90
2023-09-10T04:33:47.639Z,99.90
2023-09-10T04:34:50.693Z,99.90
2023-09-10T04:35:54.672Z,99.90
2023-09-10T04:36:58.282Z,99.90
2023-09-10T04:38:00.570Z,99.90
2023-09-10T04:39:09.227Z,99.90
2023-09-10T04:40:12.659Z,99.90
2023-09-10T04:41:15.805Z,99.90
2023-09-10T04:42:17.943Z,99.90
2023-09-10T04:43:20.871Z,99.90
2023-09-10T04:44:23.404Z,99.90
2023-09-10T04:45:26.372Z,99.90
2023-09-10T04:46:28.461Z,99.90
2023-09-10T04:47:31.503Z,99.90
2023-09-10T04:48:33.617Z,99.90
2023-09-10T04:49:38.666Z,99.90
2023-09-10T04:50:40.688Z,99.90
2023-09-10T04:51:44.011Z,99.90
2023-09-10T04:52:46.016Z,99.90
2023-09-10T04:53:48.960Z,99.90
2023-09-10T04:54:50.933Z,99.90
2023-09-10T04:55:54.925Z,99.90
2023-09-10T04:57:00.487Z,99.90
2023-09-10T04:58:05.665Z,99.90
2023-09-10T04:59:07.795Z,99.90
2023-09-10T05:00:11.452Z,99.90
2023-09-10T05:01:14.775Z,99.90
2023-09-10T05:02:17.868Z,99.90
2023-09-10T05:03:22.179Z,99.90
2023-09-10T05:04:24.408Z,99.90
2023-09-10T05:05:28.795Z,99.90
2023-09-10T05:06:30.722Z,99.90
2023-09-10T05:07:33.655Z,99.90
2023-09-10T05:08:35.828Z,99.90
2023-09-10T05:09:38.767Z,99.90
2023-09-10T05:10:40.817Z,99.90
2023-09-10T05:11:43.703Z,99.90
2023-09-10T05:12:45.741Z,99.90
2023-09-10T05:13:48.676Z,99.90
2023-09-10T05:14:50.693Z,99.90
2023-09-10T05:15:55.942Z,99.90
2023-09-10T05:16:58.172Z,99.90
2023-09-10T05:18:01.302Z,99.90
2023-09-10T05:19:03.379Z,99.90
2023-09-10T05:20:06.983Z,99.90
2023-09-10T05:21:10.332Z,99.90
2023-09-10T05:22:13.211Z,99.90
2023-09-10T05:23:15.226Z,99.90
2023-09-10T05:24:18.164Z,99.90
2023-09-10T05:25:20.241Z,99.90
2023-09-10T05:26:23.972Z,99.90
2023-09-10T05:27:26.028Z,99.90
2023-09-10T05:28:28.898Z,99.90
2023-09-10T05:29:30.996Z,99.90
2023-09-10T05:30:34.092Z,99.90
2023-09-10T05:31:36.085Z,99.90
2023-09-10T05:32:39.044Z,99.90
2023-09-10T05:33:41.103Z,99.90
2023-09-10T05:34:44.650Z,99.90
2023-09-10T05:35:54.090Z,99.90
2023-09-10T05:36:58.312Z,99.90
2023-09-10T05:38:00.373Z,99.90
2023-09-10T05:39:03.438Z,99.90
2023-09-10T05:40:06.115Z,99.90
2023-09-10T05:41:10.197Z,99.90
2023-09-10T05:42:12.227Z,99.90
2023-09-10T05:43:15.187Z,99.90
2023-09-10T05:44:17.499Z,99.90
2023-09-10T05:45:20.914Z,99.90
2023-09-10T05:46:22.983Z,99.90
2023-09-10T05:47:28.104Z,99.90
2023-09-10T05:48:30.096Z,99.90
2023-09-10T05:49:34.449Z,99.90
2023-09-10T05:50:36.512Z,99.90
2023-09-10T05:51:39.454Z,99.90
2023-09-10T05:52:42.792Z,99.90
2023-09-10T05:53:46.080Z,99.90
2023-09-10T05:54:48.212Z,99.90
2023-09-10T05:55:51.153Z,99.90
2023-09-10T05:56:53.238Z,99.90
2023-09-10T05:57:56.177Z,99.90
2023-09-10T05:58:58.346Z,99.90
2023-09-10T06:00:01.295Z,99.90
2023-09-10T06:01:04.524Z,99.90
2023-09-10T06:02:07.527Z,99.90
2023-09-10T06:03:10.908Z,99.50
2023-09-10T06:04:14.104Z,98.40
2023-09-10T06:05:16.880Z,96.80
2023-09-10T06:06:20.286Z,95.90
2023-09-10T06:07:22.252Z,94.60
2023-09-10T06:08:25.660Z,94.10
2023-09-10T06:09:28.708Z,93.10
2023-09-10T06:10:30.672Z,91.00
2023-09-10T06:11:33.620Z,89.00
2023-09-10T06:12:35.971Z,87.60
2023-09-10T06:13:39.164Z,86.10
2023-09-10T06:14:41.117Z,84.10
2023-09-10T06:15:44.289Z,82.70
2023-09-10T06:16:46.270Z,80.10
2023-09-10T06:17:55.271Z,77.20
2023-09-10T06:18:57.216Z,75.80
2023-09-10T06:20:00.650Z,72.40
2023-09-10T06:21:03.211Z,69.30
2023-09-10T06:22:05.291Z,67.50
2023-09-10T06:23:08.365Z,66.00
2023-09-10T06:24:11.909Z,65.20
2023-09-10T06:25:15.038Z,63.80
2023-09-10T06:26:17.087Z,62.50
2023-09-10T06:27:20.037Z,61.30
2023-09-10T06:28:25.193Z,60.50
2023-09-10T06:29:28.249Z,59.50
2023-09-10T06:30:30.267Z,59.20
2023-09-10T06:31:33.848Z,57.80
2023-09-10T06:32:36.035Z,56.80
2023-09-10T06:33:39.039Z,56.20
2023-09-10T06:34:41.072Z,55.90
2023-09-10T06:35:44.554Z,55.50
2023-09-10T06:36:47.019Z,54.60
2023-09-10T06:37:50.619Z,53.80
2023-09-10T06:38:52.812Z,54.30
2023-09-10T06:39:57.233Z,54.00
2023-09-10T06:40:59.164Z,53.40
2023-09-10T06:42:02.160Z,52.70
2023-09-10T06:43:11.673Z,52.10
2023-09-10T06:44:26.560Z,51.30
2023-09-10T06:45:28.631Z,51.70
2023-09-10T06:46:31.781Z,51.90
2023-09-10T06:47:33.767Z,51.50
2023-09-10T06:48:36.680Z,50.60
2023-09-10T06:49:41.487Z,50.10
2023-09-10T06:50:46.338Z,49.60
2023-09-10T06:51:48.432Z,49.00
2023-09-10T06:52:51.326Z,48.00
2023-09-10T06:53:53.735Z,47.20
2023-09-10T06:54:58.239Z,47.10
2023-09-10T06:56:00.251Z,47.10
2023-09-10T06:57:03.178Z,47.10
2023-09-10T06:58:05.109Z,47.00
2023-09-10T06:59:08.174Z,46.90
2023-09-10T07:00:10.626Z,46.40
2023-09-10T07:01:16.736Z,46.20
2023-09-10T07:02:18.741Z,45.70
2023-09-10T07:03:21.634Z,45.80
2023-09-10T07:04:25.006Z,45.20
2023-09-10T07:05:27.961Z,45.10
2023-09-10T07:06:30.073Z,44.60
2023-09-10T07:07:32.973Z,44.30
2023-09-10T07:08:36.159Z,43.80
2023-09-10T07:09:38.180Z,43.40
2023-09-10T07:10:42.531Z,42.90
2023-09-10T07:11:44.523Z,42.60
2023-09-10T07:12:47.550Z,42.30
2023-09-10T07:13:49.477Z,42.30
2023-09-10T07:14:52.372Z,42.20
2023-09-10T07:15:54.341Z,42.10
2023-09-10T07:16:57.295Z,41.60
2023-09-10T07:17:59.414Z,41.50
2023-09-10T07:19:01.420Z,41.40
2023-09-10T07:20:04.792Z,41.10
2023-09-10T07:21:06.708Z,40.40
2023-09-10T07:22:09.589Z,40.00
2023-09-10T07:23:11.521Z,38.70
2023-09-10T07:24:14.823Z,38.20
2023-09-10T07:25:17.791Z,37.30
2023-09-10T07:26:21.161Z,37.10
2023-09-10T07:27:24.198Z,35.70
2023-09-10T07:28:26.138Z,35.00
2023-09-10T07:29:29.187Z,35.00
2023-09-10T07:30:31.350Z,34.80
2023-09-10T07:31:34.403Z,34.20
2023-09-10T07:32:36.482Z,34.30
2023-09-10T07:33:39.381Z,34.00
2023-09-10T07:34:41.302Z,33.80
2023-09-10T07:35:45.364Z,34.10
2023-09-10T07:36:47.652Z,33.60
2023-09-10T07:37:52.680Z,33.30
2023-09-10T07:38:56.099Z,33.00
2023-09-10T07:39:59.024Z,32.30
2023-09-10T07:41:01.362Z,32.10
2023-09-10T07:42:06.315Z,32.00
2023-09-10T07:43:08.322Z,31.80
2023-09-10T07:44:11.302Z,31.70
2023-09-10T07:45:15.211Z,31.60
2023-09-10T07:46:18.129Z,31.50
2023-09-10T07:47:20.305Z,31.40
2023-09-10T07:48:23.221Z,30.90
2023-09-10T07:49:25.183Z,30.80
2023-09-10T07:50:29.816Z,30.80
2023-09-10T07:51:31.820Z,30.80
2023-09-10T07:52:34.906Z,30.70
2023-09-10T07:53:36.831Z,30.50
2023-09-10T07:54:39.749Z,30.40
2023-09-10T07:55:41.835Z,30.40
2023-09-10T07:56:46.952Z,30.20
2023-09-10T07:57:50.277Z,30.20
2023-09-10T07:58:53.406Z,30.30
2023-09-10T07:59:55.351Z,30.40
2023-09-10T08:00:58.619Z,30.20
2023-09-10T08:02:02.521Z,30.20
2023-09-10T08:03:07.657Z,30.10
2023-09-10T08:04:10.030Z,30.20
2023-09-10T08:05:13.026Z,30.70
2023-09-10T08:06:16.260Z,30.90
2023-09-10T08:07:19.244Z,31.10
2023-09-10T08:08:21.328Z,31.40
2023-09-10T08:09:24.314Z,31.40
2023-09-10T08:10:26.289Z,31.20
2023-09-10T08:11:29.231Z,31.40
2023-09-10T08:12:31.229Z,31.30
2023-09-10T08:13:34.506Z,31.30
2023-09-10T08:14:39.968Z,31.20
2023-09-10T08:15:42.220Z,31.20
2023-09-10T08:16:45.890Z,31.20
2023-09-10T08:17:48.857Z,31.40
2023-09-10T08:18:51.856Z,31.40
2023-09-10T08:19:53.850Z,31.40
2023-09-10T08:20:56.783Z,31.70
2023-09-10T08:21:58.978Z,31.60
2023-09-10T08:23:02.021Z,32.00
2023-09-10T08:24:05.434Z,32.20
2023-09-10T08:25:09.476Z,32.40
2023-09-10T08:26:12.466Z,32.30
2023-09-10T08:27:15.446Z,32.00
2023-09-10T08:28:17.384Z,32.60
2023-09-10T08:29:21.770Z,32.60
2023-09-10T08:30:23.831Z,32.50
2023-09-10T08:31:26.766Z,32.20
2023-09-10T08:32:29.169Z,32.20
2023-09-10T08:33:32.177Z,32.10
2023-09-10T08:34:34.150Z,32.00
2023-09-10T08:35:47.255Z,32.00
2023-09-10T08:36:49.182Z,32.20
2023-09-10T08:37:52.263Z,32.10
2023-09-10T08:38:55.698Z,32.50
2023-09-10T08:39:58.601Z,33.10
2023-09-10T08:41:04.730Z,32.80
2023-09-10T08:42:10.039Z,33.50
2023-09-10T08:43:12.712Z,33.70
2023-09-10T08:44:18.762Z,34.00
2023-09-10T08:45:23.135Z,34.10
2023-09-10T08:46:31.338Z,34.20
2023-09-10T08:47:37.739Z,34.10
2023-09-10T08:48:42.368Z,34.10
2023-09-10T08:49:45.133Z,34.30
2023-09-10T08:50:48.370Z,34.10
2023-09-10T08:51:50.514Z,34.00
2023-09-10T08:52:54.484Z,34.30
2023-09-10T08:53:57.559Z,34.30
2023-09-10T08:55:00.699Z,34.30
2023-09-10T08:56:03.465Z,34.10
2023-09-10T08:57:06.962Z,34.10
2023-09-10T08:58:10.257Z,34.40
2023-09-10T08:59:14.598Z,34.30
2023-09-10T09:00:16.809Z,34.70
2023-09-10T09:01:21.693Z,35.10
2023-09-10T09:08:52.338Z,35.10
2023-09-10T09:09:57.505Z,35.00
2023-09-10T09:11:03.931Z,35.20
2023-09-10T09:12:07.197Z,35.10
2023-09-10T09:13:11.186Z,35.20
2023-09-10T09:14:14.190Z,35.00
2023-09-10T09:15:17.213Z,35.10
2023-09-10T09:16:20.700Z,35.30
2023-09-10T09:17:24.542Z,35.60
2023-09-10T09:18:28.409Z,36.10
2023-09-10T09:19:32.323Z,36.10
2023-09-10T09:20:35.596Z,36.30
2023-09-10T09:21:41.081Z,36.60
2023-09-10T09:22:44.786Z,36.70
2023-09-10T09:23:48.527Z,36.80
2023-09-10T09:24:50.730Z,36.90
2023-09-10T09:25:53.804Z,36.50
2023-09-10T09:26:55.918Z,36.70
2023-09-10T09:27:59.042Z,36.90
2023-09-10T09:29:01.480Z,37.10
2023-09-10T09:30:06.932Z,37.00
2023-09-10T09:31:11.086Z,37.50
2023-09-10T09:32:15.450Z,37.40
2023-09-10T09:33:18.356Z,37.20
2023-09-10T09:34:20.610Z,37.60
2023-09-10T09:35:23.479Z,37.60
2023-09-10T09:36:26.672Z,38.10
2023-09-10T09:37:29.553Z,38.20
2023-09-10T09:38:31.653Z,37.80
2023-09-10T09:39:34.646Z,37.90
2023-09-10T09:40:37.228Z,38.40
2023-09-10T09:41:40.106Z,38.30
2023-09-10T09:42:41.983Z,38.60
2023-09-10T09:43:45.418Z,38.80
2023-09-10T09:44:47.329Z,38.60
2023-09-10T09:45:49.298Z,38.50
2023-09-10T09:46:52.476Z,38.60
2023-09-10T09:47:56.053Z,38.60
2023-09-10T09:48:59.035Z,38.80
2023-09-10T09:50:00.975Z,39.10
2023-09-10T09:51:04.454Z,39.40
2023-09-10T09:52:06.661Z,39.80
2023-09-10T09:53:09.895Z,39.70
2023-09-10T09:54:11.867Z,39.90
2023-09-10T09:55:14.744Z,40.10
2023-09-10T09:56:17.651Z,40.30
2023-09-10T09:57:20.622Z,39.70
2023-09-10T09:58:22.749Z,39.70
2023-09-10T09:59:25.670Z,39.80
2023-09-10T10:00:28.112Z,40.10
2023-09-10T10:01:31.185Z,39.50
2023-09-10T10:02:33.548Z,39.10
2023-09-10T10:03:38.605Z,39.30
2023-09-10T10:04:40.676Z,39.40
2023-09-10T10:05:45.023Z,38.80
2023-09-10T10:06:49.649Z,38.60
2023-09-10T10:07:53.711Z,38.90
2023-09-10T10:08:55.779Z,38.30
2023-09-10T10:09:59.512Z,38.30
2023-09-10T10:11:02.431Z,38.10
2023-09-10T10:12:08.470Z,38.30
2023-09-10T10:13:11.559Z,38.30
2023-09-10T10:14:14.162Z,38.50
2023-09-10T10:15:18.296Z,38.80
2023-09-10T10:16:21.085Z,39.00
2023-09-10T10:17:24.124Z,38.60
2023-09-10T10:18:31.361Z,39.00
2023-09-10T10:19:35.142Z,39.30
2023-09-10T10:20:39.075Z,39.50
2023-09-10T10:21:41.590Z,39.90
2023-09-10T10:22:44.934Z,40.10
2023-09-10T10:23:47.463Z,40.10
2023-09-10T10:24:51.355Z,39.80
2023-09-10T10:25:54.148Z,39.80
2023-09-10T10:26:57.236Z,39.70
2023-09-10T10:28:00.212Z,39.50
2023-09-10T10:29:03.096Z,39.40
2023-09-10T10:30:07.093Z,39.00
2023-09-10T10:31:12.447Z,38.80
2023-09-10T10:32:18.769Z,39.00
2023-09-10T10:33:22.256Z,39.40
2023-09-10T10:34:25.867Z,39.80
2023-09-10T10:35:30.947Z,40.10
2023-09-10T10:36:38.338Z,40.30
2023-09-10T10:37:45.580Z,39.90
2023-09-10T10:38:48.738Z,40.10
2023-09-10T10:39:54.055Z,40.20
2023-09-10T10:40:56.243Z,39.80
2023-09-10T10:42:00.179Z,39.60
2023-09-10T10:43:04.490Z,39.70
2023-09-10T10:44:13.170Z,39.70
2023-09-10T10:45:17.197Z,40.00
2023-09-10T10:46:21.509Z,40.00
2023-09-10T10:47:24.552Z,40.10
2023-09-10T10:48:28.205Z,40.10
2023-09-10T10:49:30.524Z,39.90
2023-09-10T10:50:37.428Z,39.70
2023-09-10T10:51:54.935Z,39.90
2023-09-10T10:53:00.767Z,39.80
2023-09-10T10:54:13.316Z,39.70
2023-09-10T10:55:16.616Z,39.70
2023-09-10T10:56:18.941Z,39.70
2023-09-10T10:57:22.550Z,39.60
2023-09-10T10:58:25.021Z,40.00
2023-09-10T10:59:27.996Z,40.00
2023-09-10T11:00:30.099Z,39.90
2023-09-10T11:01:33.030Z,40.30
2023-09-10T11:02:35.469Z,40.20
2023-09-10T11:03:38.818Z,40.20
2023-09-10T11:04:54.033Z,40.60
2023-09-10T11:06:09.140Z,40.70
2023-09-10T11:07:17.929Z,40.80
2023-09-10T11:08:26.860Z,40.50
2023-09-10T11:09:37.964Z,41.00
2023-09-10T11:10:42.030Z,40.90
2023-09-10T11:11:47.287Z,41.00
2023-09-10T11:13:05.878Z,41.00
2023-09-10T11:14:09.564Z,40.80
2023-09-10T11:15:13.699Z,40.90
2023-09-10T11:16:16.779Z,40.70
2023-09-10T11:17:23.542Z,40.60
2023-09-10T11:18:42.767Z,40.50
2023-09-10T11:19:47.205Z,40.60
2023-09-10T11:20:50.074Z,40.30
2023-09-10T11:22:04.716Z,40.70
2023-09-10T11:23:07.890Z,40.70
2023-09-10T11:24:26.885Z,40.30
2023-09-10T11:25:28.767Z,40.10
2023-09-10T11:26:34.631Z,39.90
2023-09-10T11:27:36.608Z,39.80
2023-09-10T11:28:40.954Z,39.50
2023-09-10T11:29:43.085Z,39.60
2023-09-10T11:30:45.968Z,39.90
2023-09-10T11:31:48.752Z,40.40
2023-09-10T11:33:11.926Z,40.50
2023-09-10T11:34:33.654Z,40.30
2023-09-10T11:35:38.782Z,40.50
2023-09-10T11:36:41.514Z,40.60
2023-09-10T11:37:46.344Z,40.30
2023-09-10T11:38:49.244Z,40.10
2023-09-10T11:39:51.176Z,40.20
2023-09-10T11:40:55.215Z,40.10
2023-09-10T11:41:57.848Z,40.10
2023-09-10T11:43:00.994Z,40.30
2023-09-10T11:44:03.164Z,40.10
2023-09-10T11:45:06.442Z,40.00
2023-09-10T11:46:09.330Z,40.00
2023-09-10T11:47:11.441Z,40.10
2023-09-10T11:48:15.204Z,39.90
2023-09-10T11:49:17.420Z,39.50
2023-09-10T11:50:24.761Z,39.60
2023-09-10T11:51:27.215Z,39.20
2023-09-10T11:52:30.234Z,39.40
2023-09-10T11:53:34.554Z,39.70
2023-09-10T11:54:38.420Z,39.20
2023-09-10T11:55:43.755Z,38.70
2023-09-10T11:56:46.154Z,38.70
2023-09-10T11:57:49.125Z,38.70
2023-09-10T11:58:51.115Z,38.50
2023-09-10T11:59:54.163Z,38.50
2023-09-10T12:00:56.141Z,38.70
2023-09-10T12:02:00.137Z,38.50
2023-09-10T12:03:02.280Z,38.70
2023-09-10T12:04:05.463Z,39.20
2023-09-10T12:05:08.334Z,39.40
2023-09-10T12:06:13.107Z,39.70
2023-09-10T12:07:15.050Z,39.50
2023-09-10T12:08:18.026Z,39.40
2023-09-10T12:09:21.438Z,38.70
2023-09-10T12:10:24.348Z,38.80
2023-09-10T12:11:27.652Z,39.40
2023-09-10T12:12:32.487Z,39.00
2023-09-10T12:13:36.562Z,39.20
2023-09-10T12:14:39.966Z,39.20
2023-09-10T12:15:41.971Z,38.90
2023-09-10T12:16:45.052Z,39.20
2023-09-10T12:17:47.194Z,39.30
2023-09-10T12:18:50.238Z,39.20
2023-09-10T12:19:52.454Z,39.70
2023-09-10T12:20:55.757Z,39.50
2023-09-10T12:21:57.726Z,38.30
2023-09-10T12:23:01.385Z,38.50
2023-09-10T12:24:03.571Z,38.40
2023-09-10T12:25:09.040Z,37.80
2023-09-10T12:26:11.225Z,38.30
2023-09-10T12:27:14.921Z,38.40
2023-09-10T12:28:16.862Z,38.30
2023-09-10T12:29:19.780Z,37.80
2023-09-10T12:30:23.326Z,37.80
2023-09-10T12:31:29.255Z,37.90
2023-09-10T12:32:31.369Z,38.00
2023-09-10T12:33:34.316Z,37.70
2023-09-10T12:34:37.178Z,37.30
2023-09-10T12:35:42.518Z,36.60
2023-09-10T12:36:46.950Z,36.70
2023-09-10T12:37:50.681Z,35.80
2023-09-10T12:38:53.666Z,36.00
2023-09-10T12:39:57.348Z,35.80
2023-09-10T12:41:01.767Z,36.20
2023-09-10T12:42:05.663Z,35.60
2023-09-10T12:43:09.702Z,36.10
2023-09-10T12:44:12.150Z,36.10
2023-09-10T12:45:15.517Z,36.40
2023-09-10T12:46:17.505Z,36.70
2023-09-10T12:47:20.500Z,36.90
2023-09-10T12:48:23.229Z,36.70
2023-09-10T12:49:26.647Z,37.10
2023-09-10T12:50:29.132Z,37.40
2023-09-10T12:51:32.054Z,36.20
2023-09-10T12:52:34.351Z,36.80
2023-09-10T12:53:37.473Z,36.90
2023-09-10T12:54:40.384Z,36.70
2023-09-10T12:55:43.380Z,35.90
2023-09-10T12:56:49.700Z,36.00
2023-09-10T12:57:56.329Z,34.90
2023-09-10T12:58:58.619Z,35.50
2023-09-10T13:00:01.866Z,35.50
2023-09-10T13:01:04.527Z,35.70
2023-09-10T13:02:10.430Z,35.60
2023-09-10T13:03:12.579Z,34.90
2023-09-10T13:04:16.111Z,34.90
2023-09-10T13:05:18.282Z,35.00
2023-09-10T13:06:21.383Z,34.20
2023-09-10T13:07:23.351Z,33.90
2023-09-10T13:08:26.366Z,33.90
2023-09-10T13:09:28.566Z,34.70
2023-09-10T13:10:31.428Z,34.90
2023-09-10T13:11:34.470Z,35.10
2023-09-10T13:12:37.946Z,35.20
2023-09-10T13:13:41.257Z,35.00
2023-09-10T13:14:43.440Z,35.00
2023-09-10T13:15:46.813Z,34.60
2023-09-10T13:16:48.953Z,34.60
2023-09-10T13:17:52.145Z,34.60
2023-09-10T13:18:54.301Z,34.70
2023-09-10T13:19:57.452Z,35.20
2023-09-10T13:20:59.749Z,33.80
2023-09-10T13:22:03.158Z,34.00
2023-09-10T13:23:05.383Z,34.30
2023-09-10T13:24:08.728Z,34.30
2023-09-10T13:25:10.685Z,34.10
2023-09-10T13:26:14.099Z,34.30
2023-09-10T13:27:16.083Z,34.20
2023-09-10T13:28:20.484Z,33.10
2023-09-10T13:29:22.462Z,33.00
2023-09-10T13:30:25.465Z,33.50
2023-09-10T13:31:29.417Z,34.20
2023-09-10T13:32:36.313Z,34.30
2023-09-10T13:33:38.566Z,34.60
2023-09-10T13:34:42.692Z,34.70
2023-09-10T13:35:44.777Z,35.50
2023-09-10T13:36:46.712Z,36.10
2023-09-10T13:37:49.784Z,37.30
2023-09-10T13:38:51.739Z,36.80
2023-09-10T13:39:54.820Z,37.10
2023-09-10T13:40:57.812Z,37.40
2023-09-10T13:42:00.893Z,37.20
2023-09-10T13:43:03.308Z,36.80
2023-09-10T13:44:07.593Z,36.40